Time;durP1;ratioP1;P1;durP2;ratioP2;P2;SDS_P1;SDS_P2;PMS_P1;PMS_P2;Temp;Humidity;BMP_temperature;BMP_pressure;BME280_temperature;BME280_humidity;BME280_pressure;Samples;Min_cycle;Max_cycle;Signal;HPM_P1;HPM_P2
2022/10/10 00:01:26;;;;;;;13.80;7.75;;;;;;;11.18;83.48;99937.95;1632021;88;21074;-79
2022/10/10 00:03:54;;;;;;;14.07;8.55;;;;;;;11.18;84.07;99936.22;1628717;88;21010;-78
2022/10/10 00:06:23;;;;;;;15.43;7.62;;;;;;;11.21;83.75;99934.02;1678522;85;21518;-80
2022/10/10 00:08:51;;;;;;;14.03;7.85;;;;;;;11.21;84.08;99941.37;1650800;85;21525;-80
2022/10/10 00:11:21;;;;;;;13.55;7.78;;;;;;;11.17;83.28;99939.70;1610923;88;21510;-77
2022/10/10 00:13:50;;;;;;;16.17;7.72;;;;;;;11.18;84.17;99933.63;1627732;87;21090;-80
2022/10/10 00:16:19;;;;;;;14.47;7.47;;;;;;;11.22;84.20;99937.02;1676121;85;20977;-77
2022/10/10 00:18:47;;;;;;;13.35;7.42;;;;;;;11.25;84.33;99936.54;1675660;85;20962;-79
2022/10/10 00:21:15;;;;;;;13.25;7.47;;;;;;;11.29;84.09;99931.70;1678465;85;21001;-79
2022/10/10 00:23:43;;;;;;;17.42;7.78;;;;;;;11.31;83.70;99939.05;1666522;85;21001;-78
2022/10/10 00:26:11;;;;;;;13.72;7.22;;;;;;;11.31;84.07;99938.20;1614709;88;21003;-75
2022/10/10 00:28:38;;;;;;;13.62;7.50;;;;;;;11.30;83.85;99934.74;1625488;87;21026;-78
2022/10/10 00:31:07;;;;;;;12.63;7.25;;;;;;;11.29;83.66;99933.01;1628153;88;21474;-79
2022/10/10 00:33:36;;;;;;;15.32;6.92;;;;;;;11.28;83.88;99928.70;1627322;87;21903;-79
2022/10/10 00:36:05;;;;;;;16.27;6.80;;;;;;;11.24;83.39;99932.23;1629514;88;21550;-79
2022/10/10 00:38:33;;;;;;;18.30;7.67;;;;;;;11.23;83.92;99930.94;1627566;87;21150;-79
2022/10/10 00:41:01;;;;;;;21.52;7.95;;;;;;;11.22;83.56;99923.59;1621457;88;20971;-79
2022/10/10 00:43:30;;;;;;;17.02;7.83;;;;;;;11.19;82.80;99924.91;1673655;85;21081;-78
2022/10/10 00:45:57;;;;;;;16.87;8.28;;;;;;;11.18;82.86;99926.23;1666811;86;21066;-78
2022/10/10 00:48:41;;;;;;;24.67;8.48;;;;;;;11.14;82.74;99928.89;1659226;85;21520;-81
2022/10/10 00:51:12;;;;;;;18.20;7.83;;;;;;;11.10;82.17;99926.34;1630648;86;21026;-77
2022/10/10 00:53:45;;;;;;;22.52;7.70;;;;;;;11.00;81.84;99935.16;1667777;85;21594;-81
2022/10/10 00:56:17;;;;;;;12.37;7.33;;;;;;;10.91;81.80;99930.95;1677574;85;21006;-79
2022/10/10 00:58:48;;;;;;;13.08;7.25;;;;;;;10.86;82.06;99937.52;1683986;85;21061;-80
2022/10/10 01:01:16;;;;;;;12.80;7.62;;;;;;;10.81;82.01;99937.16;1677200;85;21474;-80
2022/10/10 01:03:44;;;;;;;17.17;8.28;;;;;;;10.72;81.64;99936.39;1683850;85;21133;-80
2022/10/10 01:06:12;;;;;;;25.43;8.63;;;;;;;10.68;82.32;99933.41;1677710;85;21061;-79
2022/10/10 01:08:40;;;;;;;16.82;7.97;;;;;;;10.66;82.70;99939.03;1683407;85;21652;-80
2022/10/10 01:11:13;;;;;;;18.17;8.35;;;;;;;10.65;82.83;99934.73;1678562;85;21072;-79
2022/10/10 01:14:07;;;;;;;14.90;7.42;;;;;;;10.64;82.62;99937.34;1658147;85;21129;-78
2022/10/10 01:17:01;;;;;;;22.05;8.15;;;;;;;10.60;82.25;99934.36;1678760;85;20990;-79
2022/10/10 01:19:51;;;;;;;16.45;8.18;;;;;;;10.53;82.65;99934.88;1676296;85;20985;-79
2022/10/10 01:22:33;;;;;;;17.62;7.67;;;;;;;10.49;82.98;99936.65;1667710;85;20993;-78
2022/10/10 01:25:09;;;;;;;15.63;7.35;;;;;;;10.48;83.24;99941.41;1668812;86;21023;-79
2022/10/10 01:27:46;;;;;;;16.55;8.30;;;;;;;10.50;84.24;99948.78;1669745;86;21059;-80
2022/10/10 01:30:21;;;;;;;12.18;7.05;;;;;;;10.49;84.00;99937.95;1635525;86;21485;-81
2022/10/10 01:33:09;;;;;;;15.95;7.62;;;;;;;10.49;83.95;99941.84;1640803;87;21541;-78
2022/10/10 01:35:52;;;;;;;10.93;6.90;;;;;;;10.49;83.81;99945.75;1642773;87;21575;-78
2022/10/10 01:38:49;;;;;;;13.83;7.83;;;;;;;10.49;83.45;99940.99;1642372;86;21050;-76
2022/10/10 01:41:29;;;;;;;16.10;7.97;;;;;;;10.49;83.72;99945.75;1569455;88;21032;-77
2022/10/10 01:43:58;;;;;;;13.95;8.65;;;;;;;10.45;84.02;99945.36;1634941;87;21538;-76
2022/10/10 01:46:26;;;;;;;18.73;8.98;;;;;;;10.42;84.58;99945.38;1637527;87;21546;-75
2022/10/10 01:48:56;;;;;;;19.00;9.58;;;;;;;10.39;84.07;99935.48;1628232;86;21006;-77
2022/10/10 01:52:06;;;;;;;25.60;9.38;;;;;;;10.38;84.44;99939.80;1611486;87;21033;-76
2022/10/10 01:54:51;;;;;;;18.52;9.75;;;;;;;10.38;84.83;99935.05;1630725;87;21030;-77
2022/10/10 01:58:00;;;;;;;23.57;9.93;;;;;;;10.35;86.50;99936.80;1669229;86;21578;-77
2022/10/10 02:00:34;;;;;;;21.25;10.50;;;;;;;10.32;85.63;99935.52;1657547;86;21511;-76
2022/10/10 02:03:22;;;;;;;18.30;9.28;;;;;;;10.33;86.57;99946.80;1667015;86;21032;-77
2022/10/10 02:06:02;;;;;;;24.45;10.05;;;;;;;10.35;85.95;99948.49;1666128;85;21032;-77
2022/10/10 02:08:36;;;;;;;15.88;9.30;;;;;;;10.39;86.55;99941.98;1654837;86;21089;-75
2022/10/10 02:11:08;;;;;;;16.05;8.68;;;;;;;10.39;85.87;99945.43;1670691;86;21006;-76
2022/10/10 02:13:56;;;;;;;19.32;9.30;;;;;;;10.41;86.30;99944.97;1646809;86;21054;-76
2022/10/10 02:16:31;;;;;;;15.63;8.90;;;;;;;10.44;86.05;99953.17;1649081;87;21039;-78
2022/10/10 02:18:59;;;;;;;18.50;9.20;;;;;;;10.40;85.39;99943.23;1645931;86;21563;-76
2022/10/10 02:21:28;;;;;;;15.90;9.00;;;;;;;10.39;84.67;99952.38;1670289;86;21474;-75
2022/10/10 02:24:01;;;;;;;16.07;9.13;;;;;;;10.37;85.44;99958.88;1682902;85;21008;-75
2022/10/10 02:26:31;;;;;;;17.75;8.50;;;;;;;10.32;84.86;99953.70;1667580;85;21029;-77
2022/10/10 02:29:10;;;;;;;18.73;9.60;;;;;;;10.19;85.87;99953.40;1674129;86;21090;-77
2022/10/10 02:31:49;;;;;;;16.52;8.48;;;;;;;10.12;84.60;99952.58;1666517;85;21004;-77
2022/10/10 02:34:21;;;;;;;15.48;8.68;;;;;;;10.07;84.55;99953.08;1687747;84;20942;-77
2022/10/10 02:36:55;;;;;;;18.27;7.17;;;;;;;9.97;86.78;99947.55;1668475;86;21017;-76
2022/10/10 02:39:28;;;;;;;13.78;7.17;;;;;;;9.90;85.18;99952.36;1651325;85;21740;-75
2022/10/10 02:41:56;;;;;;;12.03;6.85;;;;;;;9.82;85.56;99955.02;1666324;86;21001;-77
2022/10/10 02:44:25;;;;;;;18.40;7.28;;;;;;;9.79;85.06;99949.87;1671181;86;21014;-77
2022/10/10 02:46:53;;;;;;;15.38;7.75;;;;;;;9.76;85.02;99954.63;1668531;86;20962;-77
2022/10/10 02:49:25;;;;;;;14.95;8.08;;;;;;;9.73;85.97;99962.91;1664491;86;21018;-76
2022/10/10 02:51:52;;;;;;;16.32;8.00;;;;;;;9.73;86.12;99971.55;1669525;86;20998;-77
2022/10/10 02:54:20;;;;;;;23.47;10.08;;;;;;;9.74;86.60;99962.02;1686329;85;21537;-76
2022/10/10 02:56:48;;;;;;;15.40;8.55;;;;;;;9.75;86.54;99959.41;1664589;85;21035;-76
2022/10/10 02:59:16;;;;;;;19.40;7.95;;;;;;;9.78;86.62;99958.96;1662836;86;21042;-75
2022/10/10 03:01:44;;;;;;;16.23;8.00;;;;;;;9.81;86.95;99964.11;1666274;86;21081;-78
2022/10/10 03:04:12;;;;;;;17.87;7.33;;;;;;;9.83;86.88;99960.66;1667829;86;21065;-76
2022/10/10 03:06:40;;;;;;;15.35;8.53;;;;;;;9.81;85.72;99955.91;1666604;85;21002;-75
2022/10/10 03:09:08;;;;;;;16.80;9.70;;;;;;;9.78;84.83;99961.11;1666445;86;21034;-76
2022/10/10 03:11:36;;;;;;;16.82;9.08;;;;;;;9.73;86.39;99966.35;1665761;85;21505;-77
2022/10/10 03:14:03;;;;;;;20.35;10.10;;;;;;;9.71;85.26;99959.45;1668633;86;21113;-75
2022/10/10 03:16:31;;;;;;;21.68;9.93;;;;;;;9.69;87.23;99958.16;1663771;85;21055;-77
2022/10/10 03:18:59;;;;;;;19.20;9.68;;;;;;;9.67;87.18;99964.22;1662064;86;21021;-76
2022/10/10 03:21:27;;;;;;;17.98;8.98;;;;;;;9.65;88.00;99956.47;1672377;86;21093;-77
2022/10/10 03:23:55;;;;;;;16.32;8.53;;;;;;;9.65;87.32;99965.55;1660334;86;21026;-76
2022/10/10 03:26:23;;;;;;;20.02;9.20;;;;;;;9.64;86.85;99963.81;1657960;86;21002;-77
2022/10/10 03:28:50;;;;;;;22.42;10.60;;;;;;;9.57;87.03;99966.05;1664003;86;21475;-77
2022/10/10 03:31:18;;;;;;;18.20;9.60;;;;;;;9.53;87.34;99967.80;1668668;86;21062;-77
2022/10/10 03:33:46;;;;;;;19.20;8.78;;;;;;;9.50;86.81;99963.06;1661544;86;21001;-77
2022/10/10 03:36:14;;;;;;;18.37;8.23;;;;;;;9.46;86.94;99967.40;1667666;86;21066;-75
2022/10/10 03:38:42;;;;;;;14.45;8.45;;;;;;;9.44;86.80;99974.78;1660879;86;20994;-77
2022/10/10 03:41:10;;;;;;;17.37;8.45;;;;;;;9.42;87.48;99981.72;1666937;86;21027;-75
2022/10/10 03:43:37;;;;;;;15.03;7.90;;;;;;;9.43;87.57;99978.23;1660120;86;21041;-77
2022/10/10 03:46:05;;;;;;;14.40;7.70;;;;;;;9.46;87.70;99976.93;1666460;86;21003;-75
2022/10/10 03:48:33;;;;;;;21.33;8.65;;;;;;;9.47;87.18;99978.23;1661938;86;21505;-76
2022/10/10 03:51:01;;;;;;;13.08;7.60;;;;;;;9.44;86.26;99974.78;1665289;86;20991;-79
2022/10/10 03:53:29;;;;;;;16.02;9.28;;;;;;;9.38;86.98;99973.52;1663217;86;20994;-82
2022/10/10 03:55:56;;;;;;;14.63;8.45;;;;;;;9.34;86.01;99969.63;1668350;86;21073;-75
2022/10/10 03:58:24;;;;;;;14.65;8.38;;;;;;;9.30;87.29;99970.97;1666537;86;21023;-75
2022/10/10 04:00:56;;;;;;;17.57;8.30;;;;;;;9.29;87.51;99964.05;1666838;86;20994;-78
2022/10/10 04:03:24;;;;;;;16.35;8.50;;;;;;;9.28;87.31;99970.97;1663102;86;21590;-76
2022/10/10 04:05:52;;;;;;;21.02;9.05;;;;;;;9.31;87.21;99970.97;1658467;85;21009;-75
2022/10/10 04:08:20;;;;;;;17.02;8.00;;;;;;;9.26;87.16;99977.91;1663518;85;21130;-78
2022/10/10 04:10:50;;;;;;;41.63;9.53;;;;;;;9.25;86.71;99975.31;1662827;86;21003;-79
2022/10/10 04:13:20;;;;;;;21.48;8.43;;;;;;;9.26;87.68;99978.34;1672302;85;21128;-80
2022/10/10 04:15:52;;;;;;;16.52;8.68;;;;;;;9.26;88.06;99976.61;1665832;86;21018;-77
2022/10/10 04:18:22;;;;;;;14.07;8.33;;;;;;;9.22;88.35;99973.61;1672879;86;21015;-76
2022/10/10 04:20:50;;;;;;;22.00;8.65;;;;;;;9.21;87.85;99971.90;1666966;86;21034;-78
2022/10/10 04:23:17;;;;;;;16.07;8.40;;;;;;;9.19;87.62;99980.13;1661031;86;20994;-78
2022/10/10 04:25:46;;;;;;;19.40;7.90;;;;;;;9.18;88.27;99973.64;1647593;87;21015;-78
2022/10/10 04:28:15;;;;;;;15.18;8.28;;;;;;;9.18;88.04;99973.20;1644299;86;20998;-76
2022/10/10 04:30:42;;;;;;;18.87;6.80;;;;;;;9.14;88.08;99969.75;1644829;87;21062;-75
2022/10/10 04:33:11;;;;;;;16.80;7.53;;;;;;;9.11;87.06;99973.67;1672646;86;21026;-78
2022/10/10 04:35:38;;;;;;;15.18;6.70;;;;;;;9.04;87.48;99974.56;1680142;85;21020;-76
2022/10/10 04:38:06;;;;;;;12.93;6.42;;;;;;;9.05;86.87;99982.79;1615293;87;21579;-78
2022/10/10 04:40:36;;;;;;;14.00;7.10;;;;;;;8.98;86.25;99976.33;1633106;86;21002;-77
2022/10/10 04:43:04;;;;;;;18.12;7.58;;;;;;;8.92;87.38;99978.07;1628141;87;21023;-78
2022/10/10 04:45:32;;;;;;;16.17;7.12;;;;;;;8.91;87.71;99980.25;1622955;87;21062;-76
2022/10/10 04:48:00;;;;;;;13.85;7.22;;;;;;;8.90;87.47;99985.00;1651140;86;21025;-78
2022/10/10 04:50:28;;;;;;;22.00;9.68;;;;;;;8.85;87.75;99991.91;1655810;85;21481;-77
2022/10/10 04:52:56;;;;;;;19.75;7.58;;;;;;;8.81;88.58;99987.61;1664165;85;21012;-76
2022/10/10 04:55:23;;;;;;;16.67;8.38;;;;;;;8.77;88.64;99991.09;1670560;85;21023;-75
2022/10/10 04:57:51;;;;;;;14.07;8.33;;;;;;;8.71;87.65;99991.11;1665097;86;21062;-77
2022/10/10 05:00:19;;;;;;;13.08;7.00;;;;;;;8.62;87.75;99989.86;1664878;85;20994;-77
2022/10/10 05:02:46;;;;;;;20.20;7.15;;;;;;;8.52;89.12;99993.77;1668584;86;21150;-76
2022/10/10 05:05:14;;;;;;;12.60;6.33;;;;;;;8.49;87.93;99998.94;1667314;85;21034;-76
2022/10/10 05:07:42;;;;;;;9.30;5.50;;;;;;;8.42;89.56;100001.13;1664816;86;21485;-77
2022/10/10 05:10:09;;;;;;;11.78;6.05;;;;;;;8.40;89.04;100008.02;1673664;85;21085;-75
2022/10/10 05:12:37;;;;;;;10.25;5.95;;;;;;;8.39;89.22;100010.59;1675926;85;21065;-77
2022/10/10 05:15:06;;;;;;;16.45;6.50;;;;;;;8.40;89.57;100016.23;1673939;83;21128;-77
2022/10/10 05:17:33;;;;;;;12.33;5.78;;;;;;;8.37;90.13;100019.66;1681072;85;21545;-77
2022/10/10 05:20:01;;;;;;;15.20;5.87;;;;;;;8.38;89.32;100014.08;1681904;85;20993;-76
2022/10/10 05:22:29;;;;;;;16.00;8.50;;;;;;;8.31;89.49;100015.34;1681148;85;21041;-77
2022/10/10 05:24:58;;;;;;;15.38;6.78;;;;;;;8.24;89.71;100018.83;1682279;85;20978;-77
2022/10/10 05:27:27;;;;;;;12.90;6.33;;;;;;;8.22;90.14;100015.81;1682828;85;21021;-75
2022/10/10 05:29:55;;;;;;;12.43;6.90;;;;;;;8.25;90.03;100016.65;1676504;85;21032;-76
2022/10/10 05:32:23;;;;;;;12.05;6.60;;;;;;;8.27;88.77;100016.66;1680095;85;21042;-75
2022/10/10 05:34:50;;;;;;;16.07;7.75;;;;;;;8.25;89.48;100016.65;1677383;85;21040;-78
2022/10/10 05:37:18;;;;;;;13.05;7.10;;;;;;;8.25;90.51;100022.27;1683229;85;21014;-77
2022/10/10 05:39:47;;;;;;;10.28;6.35;;;;;;;8.25;89.53;100019.68;1662267;84;21521;-76
2022/10/10 05:42:15;;;;;;;14.93;7.60;;;;;;;8.30;91.14;100025.30;1667126;84;21845;-76
2022/10/10 05:44:42;;;;;;;11.35;7.03;;;;;;;8.35;90.69;100036.50;1653953;84;21025;-76
2022/10/10 05:47:10;;;;;;;15.93;7.20;;;;;;;8.42;90.53;100030.08;1658444;86;21021;-78
2022/10/10 05:49:38;;;;;;;11.75;7.25;;;;;;;8.52;89.64;100031.34;1655610;84;21053;-77
2022/10/10 05:52:05;;;;;;;12.20;6.58;;;;;;;8.53;90.28;100034.38;1664769;84;20972;-75
2022/10/10 05:54:33;;;;;;;15.72;6.60;;;;;;;8.58;90.57;100036.09;1660278;84;21505;-76
2022/10/10 05:57:01;;;;;;;13.35;6.33;;;;;;;8.67;89.84;100036.06;1661278;84;21459;-77
2022/10/10 05:59:29;;;;;;;13.55;6.92;;;;;;;8.68;90.22;100035.20;1669376;84;21078;-78
2022/10/10 06:01:57;;;;;;;17.32;6.60;;;;;;;8.73;90.25;100043.41;1663489;85;20999;-76
2022/10/10 06:04:24;;;;;;;12.93;6.85;;;;;;;8.78;90.70;100043.83;1666980;84;21194;-77
2022/10/10 06:06:52;;;;;;;9.58;5.83;;;;;;;8.85;90.80;100042.92;1660111;86;21514;-75
2022/10/10 06:09:20;;;;;;;15.72;8.18;;;;;;;8.91;89.46;100046.38;1658882;85;21030;-77
2022/10/10 06:11:48;;;;;;;21.85;9.48;;;;;;;8.96;89.67;100048.52;1676738;85;21088;-77
2022/10/10 06:14:16;;;;;;;14.00;7.15;;;;;;;9.07;89.90;100054.09;1630209;86;21004;-77
2022/10/10 06:16:44;;;;;;;14.75;7.35;;;;;;;9.17;90.00;100057.07;1653807;85;21549;-77
2022/10/10 06:19:12;;;;;;;14.07;6.87;;;;;;;9.27;90.04;100061.79;1652452;85;21016;-76
2022/10/10 06:21:40;;;;;;;14.33;6.53;;;;;;;9.38;89.90;100057.87;1643930;85;21020;-77
2022/10/10 06:24:09;;;;;;;12.80;6.03;;;;;;;9.48;89.33;100060.84;1648498;85;21110;-77
2022/10/10 06:26:37;;;;;;;16.12;7.35;;;;;;;9.57;88.89;100060.80;1645497;85;21012;-76
2022/10/10 06:29:06;;;;;;;14.10;7.12;;;;;;;9.66;89.06;100064.63;1657415;85;20962;-76
2022/10/10 06:31:38;;;;;;;18.15;7.08;;;;;;;9.75;89.17;100065.88;1647949;85;20997;-77
2022/10/10 06:34:03;;;;;;;14.70;7.72;;;;;;;9.88;89.16;100065.80;1651841;85;21043;-78
2022/10/10 06:36:31;;;;;;;14.78;7.20;;;;;;;9.99;88.88;100069.19;1636573;86;21005;-76
2022/10/10 06:38:59;;;;;;;20.23;7.87;;;;;;;10.08;88.27;100065.65;1647388;85;22289;-78
2022/10/10 06:41:27;;;;;;;11.30;6.28;;;;;;;10.11;88.32;100070.39;1641128;85;21029;-76
2022/10/10 06:43:54;;;;;;;17.98;7.55;;;;;;;10.22;88.47;100073.34;1647388;87;20993;-78
2022/10/10 06:46:22;;;;;;;12.07;7.30;;;;;;;10.34;88.65;100074.56;1651297;85;21007;-76
2022/10/10 06:48:50;;;;;;;36.93;17.73;;;;;;;10.44;88.40;100075.35;1651656;85;20969;-77
2022/10/10 06:51:17;;;;;;;14.33;7.70;;;;;;;10.55;88.39;100073.53;1653776;85;20969;-77
2022/10/10 06:53:45;;;;;;;12.53;6.22;;;;;;;10.69;88.12;100074.70;1650824;87;20977;-77
2022/10/10 06:56:20;;;;;;;12.63;6.28;;;;;;;10.79;87.58;100079.37;1645181;85;21505;-77
2022/10/10 06:58:44;;;;;;;12.88;5.87;;;;;;;10.87;87.41;100076.24;1647041;85;21005;-76
2022/10/10 07:01:12;;;;;;;9.80;6.20;;;;;;;11.00;87.35;100074.36;1647956;86;21052;-82
2022/10/10 07:03:40;;;;;;;12.53;6.08;;;;;;;11.10;87.11;100078.16;1649792;85;21520;-81
2022/10/10 07:06:10;;;;;;;12.40;6.25;;;;;;;11.22;86.95;100073.25;1648917;85;21136;-77
2022/10/10 07:08:39;;;;;;;11.70;5.87;;;;;;;11.35;86.34;100078.70;1651474;85;21025;-76
2022/10/10 07:11:08;;;;;;;16.35;6.37;;;;;;;11.48;86.06;100077.23;1648337;86;20952;-78
2022/10/10 07:13:37;;;;;;;10.63;5.55;;;;;;;11.57;85.76;100077.13;1636607;86;21046;-79
2022/10/10 07:16:06;;;;;;;9.03;4.90;;;;;;;11.69;85.21;100069.59;1668898;84;21018;-77
2022/10/10 07:18:35;;;;;;;13.43;6.00;;;;;;;11.77;85.06;100077.30;1667669;84;20970;-75
2022/10/10 07:21:04;;;;;;;21.15;5.75;;;;;;;11.89;84.48;100077.16;1669156;84;21518;-80
2022/10/10 07:23:31;;;;;;;17.15;5.87;;;;;;;11.94;83.86;100084.47;1662345;84;21050;-76
2022/10/10 07:26:06;;;;;;;15.18;7.30;;;;;;;11.99;83.82;100070.91;1433218;84;10000530;-78
2022/10/10 07:28:34;;;;;;;12.45;5.72;;;;;;;12.03;83.70;100072.58;1685071;84;21033;-79
2022/10/10 07:31:06;;;;;;;14.33;6.08;;;;;;;12.14;83.94;100069.83;1679602;83;21972;-77
2022/10/10 07:33:37;;;;;;;18.77;5.95;;;;;;;12.24;83.83;100073.16;1684006;83;21013;-79
2022/10/10 07:36:06;;;;;;;11.30;5.45;;;;;;;12.21;82.66;100072.73;1441520;83;10000606;-76
2022/10/10 07:38:36;;;;;;;17.05;6.42;;;;;;;12.21;81.98;100072.73;1446436;84;10000567;-76
2022/10/10 07:41:07;;;;;;;13.88;6.45;;;;;;;12.23;82.00;100071.41;1679568;83;21029;-76
2022/10/10 07:43:36;;;;;;;16.75;6.35;;;;;;;12.27;82.21;100071.78;1677698;83;21060;-75
2022/10/10 07:46:05;;;;;;;15.25;6.45;;;;;;;12.31;82.13;100066.52;1675429;83;20990;-73
2022/10/10 07:48:33;;;;;;;10.54;5.69;;;;;;;12.36;81.70;100060.36;1454364;83;10000445;-74
2022/10/10 07:51:05;;;;;;;13.03;6.62;;;;;;;12.41;81.63;100063.73;1680931;84;21069;-75
2022/10/10 07:53:33;;;;;;;10.72;6.22;;;;;;;12.49;81.98;100057.93;1682322;83;21552;-74
2022/10/10 07:56:05;;;;;;;14.73;7.62;;;;;;;12.54;81.63;100059.58;1683834;84;21009;-72
2022/10/10 07:58:35;;;;;;;10.32;5.75;;;;;;;12.53;81.35;100058.30;1653792;85;21151;-73
2022/10/10 08:01:11;;;;;;;13.53;7.17;;;;;;;12.58;81.00;100057.78;1666972;84;21030;-75
2022/10/10 08:03:39;;;;;;;18.27;6.42;;;;;;;12.66;81.46;100049.81;1664057;84;21002;-73
2022/10/10 08:06:11;;;;;;;11.57;6.40;;;;;;;12.76;80.46;100051.81;1669533;84;20982;-75
2022/10/10 08:08:40;;;;;;;11.63;6.00;;;;;;;12.84;80.75;100044.25;1667606;84;21002;-75
2022/10/10 08:11:09;;;;;;;14.90;6.17;;;;;;;12.93;80.07;100051.91;1664886;84;21052;-73
2022/10/10 08:13:38;;;;;;;13.55;6.28;;;;;;;13.05;80.63;100052.53;1668309;84;21034;-72
2022/10/10 08:16:06;;;;;;;13.53;5.90;;;;;;;13.15;80.16;100052.80;1662434;84;21022;-74
2022/10/10 08:18:35;;;;;;;14.40;6.30;;;;;;;13.20;79.90;100042.25;1663211;84;21007;-74
2022/10/10 08:21:06;;;;;;;11.30;6.00;;;;;;;13.30;79.84;100049.88;1664773;84;21037;-72
2022/10/10 08:23:35;;;;;;;12.20;5.90;;;;;;;13.35;78.62;100044.58;1658007;85;21088;-73
2022/10/10 08:26:06;;;;;;;11.05;5.25;;;;;;;13.39;77.89;100041.42;1667255;84;21558;-76
2022/10/10 08:28:35;;;;;;;11.10;5.90;;;;;;;13.45;78.38;100038.25;1660727;84;21014;-75
2022/10/10 08:31:11;;;;;;;12.13;6.00;;;;;;;13.52;78.46;100037.20;1665059;84;22098;-74
2022/10/10 08:33:41;;;;;;;11.80;6.25;;;;;;;13.65;78.25;100035.66;1664871;84;20978;-74
2022/10/10 08:36:17;;;;;;;13.18;6.05;;;;;;;13.70;77.29;100037.70;1663886;84;21021;-75
2022/10/10 08:38:45;;;;;;;15.70;5.35;;;;;;;13.77;76.56;100035.37;1661512;84;21166;-73
2022/10/10 08:41:45;;;;;;;11.65;5.70;;;;;;;13.88;77.63;100033.80;1658526;85;21056;-74
2022/10/10 08:44:36;;;;;;;9.05;5.40;;;;;;;14.00;77.07;100030.87;1664629;84;21037;-75
2022/10/10 08:47:26;;;;;;;12.53;5.10;;;;;;;14.08;77.05;100031.55;1668402;84;21541;-79
2022/10/10 08:50:17;;;;;;;11.75;5.67;;;;;;;14.19;76.24;100027.84;1664333;84;21058;-81
2022/10/10 08:53:02;;;;;;;10.03;5.17;;;;;;;14.25;74.68;100030.30;1658265;85;21098;-78
2022/10/10 08:55:37;;;;;;;15.55;6.20;;;;;;;14.36;76.31;100021.70;1644953;85;21044;-84
2022/10/10 08:58:13;;;;;;;11.45;5.35;;;;;;;14.45;75.59;100018.86;1642533;85;20998;-84
2022/10/10 09:01:10;;;;;;;16.32;4.95;;;;;;;14.52;74.83;100023.05;1643357;85;21026;-80
2022/10/10 09:03:45;;;;;;;14.50;6.25;;;;;;;14.64;75.07;100024.94;1574216;89;21566;-81
2022/10/10 09:06:41;;;;;;;10.88;5.70;;;;;;;14.70;74.54;100019.53;1629264;85;21057;-82
2022/10/10 09:09:54;;;;;;;12.30;5.95;;;;;;;14.81;75.04;100025.34;1655595;85;21857;-81
2022/10/10 09:12:53;;;;;;;13.43;4.95;;;;;;;14.88;74.23;100030.83;1663754;84;21014;-78
2022/10/10 09:15:29;;;;;;;10.28;5.20;;;;;;;14.90;73.80;100022.48;1662274;84;21022;-82
2022/10/10 09:18:33;;;;;;;9.18;4.95;;;;;;;15.01;74.41;100023.94;1660606;85;21005;-81
2022/10/10 09:21:23;;;;;;;10.68;4.90;;;;;;;15.04;74.11;100019.47;1621189;87;20971;-80
2022/10/10 09:24:19;;;;;;;8.90;4.72;;;;;;;15.15;72.56;100028.78;1668215;86;21058;-80
2022/10/10 09:26:55;;;;;;;9.63;5.42;;;;;;;15.25;73.58;100022.36;1662102;86;20986;-83
2022/10/10 09:29:48;;;;;;;9.60;5.60;;;;;;;15.36;73.51;100015.48;1662067;85;21024;-87
2022/10/10 09:32:36;;;;;;;9.38;4.90;;;;;;;15.44;72.54;100016.13;1668321;86;21494;-79
2022/10/10 09:35:26;;;;;;;13.60;5.42;;;;;;;15.53;72.67;100006.66;1641149;86;21053;-82
2022/10/10 09:38:32;;;;;;;11.40;4.60;;;;;;;15.64;71.96;100011.59;1668081;85;21087;-84
2022/10/10 09:41:14;;;;;;;9.10;4.55;;;;;;;15.69;72.28;100011.82;1663404;84;20994;-84
2022/10/10 09:43:42;;;;;;;9.25;5.03;;;;;;;15.79;70.95;100008.48;1668579;86;20998;-84
2022/10/10 09:46:10;;;;;;;9.48;4.70;;;;;;;15.88;70.83;100002.96;1669340;84;21053;-82
2022/10/10 09:48:41;;;;;;;12.03;5.35;;;;;;;15.93;71.58;100007.20;1665661;84;21077;-82
2022/10/10 09:51:15;;;;;;;12.28;5.50;;;;;;;15.98;71.06;100000.90;1660173;85;21540;-82
2022/10/10 09:53:44;;;;;;;12.60;5.85;;;;;;;16.09;71.42;99993.55;1667508;84;22100;-81
2022/10/10 09:56:26;;;;;;;8.50;4.78;;;;;;;16.17;71.51;99998.50;1675612;84;21561;-82
2022/10/10 09:58:58;;;;;;;13.10;5.62;;;;;;;16.32;71.83;99997.14;1671381;84;22116;-82
2022/10/10 10:01:31;;;;;;;9.50;4.85;;;;;;;16.43;71.66;99992.39;1665690;84;21050;-82
2022/10/10 10:04:18;;;;;;;16.12;5.55;;;;;;;16.49;70.33;99990.86;1665250;84;20982;-81
2022/10/10 10:06:51;;;;;;;9.03;5.37;;;;;;;16.61;70.37;99986.06;1646825;86;21041;-81
2022/10/10 10:09:22;;;;;;;28.47;12.15;;;;;;;16.68;70.53;99983.63;1669202;85;21029;-79
2022/10/10 10:11:56;;;;;;;11.68;6.35;;;;;;;16.84;70.73;99986.59;1669406;84;21061;-81
2022/10/10 10:14:28;;;;;;;14.33;5.85;;;;;;;16.93;70.80;99981.45;1667913;85;21013;-81
2022/10/10 10:17:07;;;;;;;15.45;6.12;;;;;;;17.06;70.46;99969.58;1642807;85;21071;-79
2022/10/10 10:19:38;;;;;;;11.15;5.85;;;;;;;17.16;69.36;99969.62;1649973;85;20999;-80
2022/10/10 10:22:30;;;;;;;14.07;6.45;;;;;;;17.34;69.25;99979.03;1642820;85;21030;-80
2022/10/10 10:25:02;;;;;;;12.23;6.15;;;;;;;17.36;69.17;99966.69;1649554;86;21019;-81
2022/10/10 10:27:29;;;;;;;10.68;5.58;;;;;;;17.41;68.40;99967.38;1622927;87;21003;-83
2022/10/10 10:29:58;;;;;;;14.58;5.53;;;;;;;17.53;67.24;99962.06;1647248;87;21062;-81
2022/10/10 10:32:48;;;;;;;12.58;5.60;;;;;;;17.53;66.76;99957.68;1437682;84;10000547;-81
2022/10/10 10:35:30;;;;;;;11.78;6.03;;;;;;;17.65;67.09;99957.65;1667036;84;21034;-82
2022/10/10 10:38:24;;;;;;;11.43;6.17;;;;;;;17.71;66.17;99953.45;1668493;84;21030;-81
2022/10/10 10:41:34;;;;;;;12.15;6.50;;;;;;;17.82;66.67;99946.42;1671888;85;21070;-81
2022/10/10 10:44:22;;;;;;;12.45;6.92;;;;;;;17.91;66.90;99942.61;1643864;84;21457;-79
2022/10/10 10:47:21;;;;;;;14.13;6.42;;;;;;;18.02;66.72;99935.94;1672814;84;21026;-83
2022/10/10 10:50:06;;;;;;;15.35;6.72;;;;;;;18.21;67.01;99937.81;1663222;84;21143;-80
2022/10/10 10:52:59;;;;;;;13.45;6.55;;;;;;;18.34;65.52;99928.91;1673585;84;21136;-79
2022/10/10 10:55:37;;;;;;;;;;;;;;;18.48;66.58;99926.52;1677374;84;21030;-80
2022/10/10 10:58:30;;;;;;;10.35;6.17;;;;;;;18.57;63.67;99921.31;1669026;84;20119;-80
2022/10/10 11:01:02;;;;;;;12.58;6.75;;;;;;;18.67;65.17;99922.61;1665714;86;21486;-79
2022/10/10 11:03:47;;;;;;;12.25;5.67;;;;;;;18.81;64.94;99914.95;1652197;86;21038;-79
2022/10/10 11:06:53;;;;;;;14.87;6.17;;;;;;;18.93;64.88;99917.95;1661327;85;20972;-82
2022/10/10 11:09:26;;;;;;;16.77;6.70;;;;;;;19.15;64.52;99908.11;1670510;84;21047;-79
2022/10/10 11:12:00;;;;;;;;;;;;;;;19.25;62.45;99912.48;1667253;84;20994;-81
2022/10/10 11:14:52;;;;;;;;;;;;;;;19.27;61.26;99911.94;1647849;86;20112;-80
2022/10/10 11:17:28;;;;;;;11.55;5.55;;;;;;;19.34;59.87;99902.82;1640284;86;20693;-80
2022/10/10 11:20:25;;;;;;;12.37;5.95;;;;;;;19.47;62.80;99912.29;1635825;86;21148;-79
2022/10/10 11:23:16;;;;;;;11.83;6.20;;;;;;;19.49;61.64;99905.16;1638373;86;20997;-80
2022/10/10 11:25:55;;;;;;;16.65;6.35;;;;;;;19.62;61.81;99897.04;1645860;87;21001;-78
2022/10/10 11:28:39;;;;;;;11.28;5.45;;;;;;;19.84;62.59;99894.68;1621491;86;21063;-82
2022/10/10 11:31:18;;;;;;;10.30;5.10;;;;;;;20.18;59.51;99891.63;1622453;88;21507;-79
2022/10/10 11:33:53;;;;;;;12.20;5.03;;;;;;;20.26;57.74;99888.12;1644413;87;21607;-79
2022/10/10 11:36:25;;;;;;;12.78;5.62;;;;;;;20.33;58.50;99883.36;1628646;86;21097;-79
2022/10/10 11:39:13;;;;;;;10.93;5.43;;;;;;;20.40;56.81;99880.78;1639023;87;21034;-81
2022/10/10 11:41:45;;;;;;;12.30;5.67;;;;;;;20.46;57.75;99877.34;1640607;86;21029;-80
2022/10/10 11:44:28;;;;;;;7.85;4.58;;;;;;;20.60;54.12;99875.31;1614354;89;21461;-78
2022/10/10 11:47:22;;;;;;;10.63;5.30;;;;;;;20.76;57.52;99865.23;1633229;86;20998;-80
2022/10/10 11:50:04;;;;;;;11.73;5.12;;;;;;;20.99;57.51;99863.94;1641815;87;20989;-80
2022/10/10 11:53:03;;;;;;;12.53;5.50;;;;;;;21.03;56.60;99866.34;1640357;87;20977;-83
2022/10/10 11:55:54;;;;;;;13.28;5.87;;;;;;;21.14;54.51;99860.92;1645427;86;21033;-80